ジッダ の空港の天気 - METARとTAF

キング・アブドゥルアズィーズ国際空港(ジッダ) ( OEJN / JED ) - サウジアラビア ジッダ
飛行場実況気象(Metar)
観測時間01/17 09:00 AST (01/17 06:00 UTC)
風向・風速静穏 0m/s
視程5000m
天気現象もや
少しの雲 雲底高度 1220m
気温23℃
湿度89%
気圧1014hPa
METAROEJN 170600Z 00000KT 5000 BR FEW040 23/21 Q1014 BECMG 7000
過去の天気等 Google飛行場航空写真 Wunderground天気予報

過去48時間のMETAR

飛行場予報(TAF)
発表時間: 1/17 08:00 AST (1/17 05:00 UTC)
予報対象時間: 17日9時 AST ~ 18日15時 AST
風向・風速北東 3m/s
視程8,000m
なし
17日13時 AST ~ 17日15時 AST に徐々に
風向・風速西北西 6m/s
17日21時 AST ~ 17日23時 AST に徐々に
風向・風速北 4m/s
TAF OEJN 170500Z 1706/1812 05006KT 8000 NSC
BECMG 1710/1712 29012KT
BECMG 1718/1720 36008KT